createdAt,value
2016-12-29T00:01:08.918Z,78.89
2016-12-29T00:02:17.926Z,78.99
2016-12-29T00:03:26.925Z,78.89
2016-12-29T00:04:35.909Z,78.89
2016-12-29T00:05:44.904Z,78.89
2016-12-29T00:06:53.896Z,78.89
2016-12-29T00:08:02.863Z,78.79
2016-12-29T00:09:12.265Z,79.17
2016-12-29T00:10:21.249Z,79.08
2016-12-29T00:11:31.177Z,78.99
2016-12-29T00:12:40.391Z,79.08
2016-12-29T00:13:49.536Z,78.79
2016-12-29T00:14:58.551Z,78.79
2016-12-29T00:16:07.936Z,79.08
2016-12-29T00:17:17.030Z,78.99
2016-12-29T00:18:27.083Z,79.66
2016-12-29T00:19:36.064Z,78.99
2016-12-29T00:20:45.093Z,78.5
2016-12-29T00:21:54.084Z,78.89
2016-12-29T00:23:03.112Z,78.99
2016-12-29T00:24:12.175Z,79.27
2016-12-29T00:25:21.159Z,78.79
2016-12-29T00:26:30.513Z,79.66
2016-12-29T00:27:39.543Z,79.47
2016-12-29T00:28:48.675Z,79.27
2016-12-29T00:29:57.686Z,79.47
2016-12-29T00:31:06.677Z,79.66
2016-12-29T00:32:16.023Z,79.47
2016-12-29T00:33:25.019Z,79.66
2016-12-29T00:34:34.046Z,79.66
2016-12-29T00:35:43.084Z,79.37
2016-12-29T00:36:52.536Z,79.37
2016-12-29T00:38:01.523Z,79.82
2016-12-29T00:39:10.934Z,79.52
2016-12-29T00:40:19.937Z,79.62
2016-12-29T00:41:28.990Z,79.91
2016-12-29T00:42:37.969Z,79.62
2016-12-29T00:43:47.087Z,80.11
2016-12-29T00:44:56.226Z,79.91
2016-12-29T00:46:05.314Z,80.01
2016-12-29T00:47:14.294Z,79.43
2016-12-29T00:48:23.657Z,79.37
2016-12-29T00:49:32.650Z,79.66
2016-12-29T00:50:41.641Z,78.79
2016-12-29T00:51:50.729Z,78.89
2016-12-29T00:52:59.717Z,78.79
2016-12-29T00:54:08.717Z,78.69
2016-12-29T00:55:17.689Z,78.69
2016-12-29T00:56:26.664Z,78.99
2016-12-29T00:57:35.651Z,79.17
2016-12-29T00:58:44.632Z,79.17
2016-12-29T00:59:53.622Z,78.69
2016-12-29T01:01:02.615Z,77.82
2016-12-29T01:02:11.604Z,73.18
2016-12-29T01:03:20.587Z,69.85
2016-12-29T01:04:29.570Z,68.11
2016-12-29T01:05:38.574Z,66.27
2016-12-29T01:06:47.558Z,65.59
2016-12-29T01:07:56.538Z,65.11
2016-12-29T01:09:05.515Z,64.72
2016-12-29T01:10:14.503Z,64.24
2016-12-29T01:11:23.495Z,63.73
2016-12-29T01:12:32.486Z,63.73
2016-12-29T01:13:41.477Z,63.4
2016-12-29T01:14:50.456Z,63.5
2016-12-29T01:15:59.436Z,63.6
2016-12-29T01:17:08.406Z,63.4
2016-12-29T01:18:17.400Z,63.56
2016-12-29T01:19:26.383Z,63.37
2016-12-29T01:20:35.357Z,63.82
2016-12-29T01:21:44.322Z,63.43
2016-12-29T01:22:53.325Z,63.31
2016-12-29T01:24:02.310Z,63.6
2016-12-29T01:25:11.307Z,63.98
2016-12-29T01:26:20.318Z,63.67
2016-12-29T01:27:29.318Z,63.21
2016-12-29T01:28:38.303Z,63.09
2016-12-29T01:29:47.289Z,63.54
2016-12-29T01:30:56.263Z,63.92
2016-12-29T01:32:05.252Z,63.73
2016-12-29T01:33:14.249Z,63.98
2016-12-29T01:34:23.220Z,64.37
2016-12-29T01:35:32.197Z,64.63
2016-12-29T01:36:41.183Z,64.25
2016-12-29T01:37:50.168Z,64.25
2016-12-29T01:38:59.149Z,64.25
2016-12-29T01:40:08.125Z,63.7
2016-12-29T01:41:17.116Z,64.34
2016-12-29T01:42:26.093Z,64.21
2016-12-29T01:43:35.060Z,64.31
2016-12-29T01:44:44.037Z,64.59
2016-12-29T01:45:53.046Z,64.98
2016-12-29T01:47:02.038Z,64.4
2016-12-29T01:48:11.011Z,64.79
2016-12-29T01:49:20.127Z,64.98
2016-12-29T01:50:29.253Z,64.4
2016-12-29T01:51:38.236Z,65.33
2016-12-29T01:52:47.330Z,65.33
2016-12-29T01:53:56.330Z,65.63
2016-12-29T01:55:05.364Z,66.1
2016-12-29T01:56:14.379Z,65.33
2016-12-29T01:57:23.383Z,65.43
2016-12-29T01:58:32.406Z,65.53
2016-12-29T01:59:41.462Z,65.5
2016-12-29T02:00:50.461Z,65.11
2016-12-29T02:01:59.640Z,65.59
2016-12-29T02:03:08.702Z,65.5
2016-12-29T02:04:17.789Z,65.5
2016-12-29T02:05:26.779Z,65.4
2016-12-29T02:06:35.749Z,65.78
2016-12-29T02:07:44.790Z,65.97
2016-12-29T02:08:53.828Z,65.97
2016-12-29T02:10:03.424Z,66.07
2016-12-29T02:11:12.826Z,65.84
2016-12-29T02:12:22.318Z,66.07
2016-12-29T02:13:31.557Z,65.88
2016-12-29T02:14:40.544Z,65.75
2016-12-29T02:15:50.699Z,66.14
2016-12-29T02:16:59.698Z,65.94
2016-12-29T02:18:08.840Z,66.14
2016-12-29T02:19:17.818Z,65.66
2016-12-29T02:20:26.801Z,65.75
2016-12-29T02:21:35.898Z,66.04
2016-12-29T02:22:44.874Z,66.14
2016-12-29T02:23:53.955Z,66.14
2016-12-29T02:25:02.929Z,66.14
2016-12-29T02:26:12.001Z,66.04
2016-12-29T02:27:20.983Z,66.14
2016-12-29T02:28:30.138Z,66
2016-12-29T02:29:39.167Z,66
2016-12-29T02:30:48.250Z,66
2016-12-29T02:31:57.232Z,66
2016-12-29T02:33:06.219Z,66.1
2016-12-29T02:34:15.184Z,65.81
2016-12-29T02:35:24.218Z,66.3
2016-12-29T02:36:33.195Z,65.81
2016-12-29T02:37:42.186Z,66.39
2016-12-29T02:38:51.170Z,65.91
2016-12-29T02:40:00.307Z,66.49
2016-12-29T02:41:09.302Z,66.39
2016-12-29T02:42:18.279Z,66.49
2016-12-29T02:43:27.263Z,66.1
2016-12-29T02:44:36.290Z,66.2
2016-12-29T02:45:45.289Z,66.2
2016-12-29T02:46:54.276Z,66.1
2016-12-29T02:48:03.531Z,66.68
2016-12-29T02:49:12.532Z,66.39
2016-12-29T02:50:21.603Z,66.36
2016-12-29T02:51:30.593Z,66.84
2016-12-29T02:52:39.578Z,67.03
2016-12-29T02:53:48.566Z,66.74
2016-12-29T02:54:57.541Z,67.32
2016-12-29T02:56:06.521Z,67.32
2016-12-29T02:57:15.495Z,66.74
2016-12-29T02:58:24.504Z,66.64
2016-12-29T02:59:33.492Z,66.46
2016-12-29T03:00:42.539Z,66.93
2016-12-29T03:01:51.505Z,66.9
2016-12-29T03:03:00.499Z,67.13
2016-12-29T03:04:09.475Z,67.29
2016-12-29T03:05:18.771Z,67.19
2016-12-29T03:06:28.150Z,67.38
2016-12-29T03:07:37.247Z,67.47
2016-12-29T03:08:46.219Z,67.38
2016-12-29T03:09:55.195Z,67.19
2016-12-29T03:11:04.184Z,67.29
2016-12-29T03:12:13.161Z,67.57
2016-12-29T03:13:22.141Z,67.47
2016-12-29T03:14:31.111Z,66.8
2016-12-29T03:15:40.202Z,67.47
2016-12-29T03:16:49.174Z,67.29
2016-12-29T03:17:58.207Z,66.8
2016-12-29T03:19:07.202Z,66.61
2016-12-29T03:20:16.174Z,66.9
2016-12-29T03:21:25.185Z,66.64
2016-12-29T03:22:34.151Z,67.29
2016-12-29T03:23:43.132Z,67.47
2016-12-29T03:24:52.102Z,67.19
2016-12-29T03:26:01.085Z,67.38
2016-12-29T03:27:10.059Z,67.19
2016-12-29T03:28:19.042Z,67.19
2016-12-29T03:29:28.064Z,67.19
2016-12-29T03:30:37.045Z,67.86
2016-12-29T03:31:46.051Z,67.25
2016-12-29T03:32:55.029Z,67.73
2016-12-29T03:34:04.013Z,67.63
2016-12-29T03:35:14.032Z,67.83
2016-12-29T03:36:23.021Z,67.63
2016-12-29T03:37:31.988Z,67.73
2016-12-29T03:38:40.969Z,67.63
2016-12-29T03:39:50.187Z,67.54
2016-12-29T03:40:59.162Z,67.92
2016-12-29T03:42:08.167Z,68.02
2016-12-29T03:43:17.145Z,67.44
2016-12-29T03:44:26.246Z,67.73
2016-12-29T03:45:35.220Z,68.12
2016-12-29T03:46:44.186Z,68.12
2016-12-29T03:47:53.175Z,67.92
2016-12-29T03:49:02.153Z,67.92
2016-12-29T03:50:11.127Z,68.59
2016-12-29T03:51:20.174Z,68.5
2016-12-29T03:52:29.150Z,68.46
2016-12-29T03:53:38.119Z,68.5
2016-12-29T03:54:47.100Z,68.4
2016-12-29T03:55:56.086Z,68.66
2016-12-29T03:57:05.053Z,68.18
2016-12-29T03:58:14.040Z,68.3
2016-12-29T03:59:23.005Z,68.12
2016-12-29T04:00:32.403Z,68.21
2016-12-29T04:01:41.367Z,68.02
2016-12-29T04:02:50.359Z,68.5
2016-12-29T04:03:59.332Z,67.92
2016-12-29T04:05:08.369Z,68.56
2016-12-29T04:06:17.376Z,68.4
2016-12-29T04:07:26.338Z,68.59
2016-12-29T04:08:35.330Z,68.37
2016-12-29T04:09:44.307Z,68.12
2016-12-29T04:10:53.271Z,68.46
2016-12-29T04:12:02.258Z,68.27
2016-12-29T04:13:11.317Z,68.46
2016-12-29T04:14:20.518Z,68.5
2016-12-29T04:15:29.492Z,68.08
2016-12-29T04:16:38.470Z,68.18
2016-12-29T04:17:47.440Z,68.56
2016-12-29T04:18:56.425Z,68.66
2016-12-29T04:20:05.397Z,68.56
2016-12-29T04:21:14.393Z,68.37
2016-12-29T04:22:23.378Z,68.37
2016-12-29T04:23:32.363Z,68.37
2016-12-29T04:24:41.320Z,68.46
2016-12-29T04:25:50.293Z,68.08
2016-12-29T04:26:59.269Z,68.18
2016-12-29T04:28:08.259Z,68.18
2016-12-29T04:29:17.237Z,68.56
2016-12-29T04:30:26.228Z,68.56
2016-12-29T04:31:35.200Z,67.99
2016-12-29T04:32:44.180Z,67.89
2016-12-29T04:33:53.148Z,68.37
2016-12-29T04:35:02.129Z,68.37
2016-12-29T04:36:11.107Z,67.89
2016-12-29T04:37:20.100Z,67.92
2016-12-29T04:38:29.069Z,67.69
2016-12-29T04:39:38.051Z,67.79
2016-12-29T04:40:47.025Z,68.18
2016-12-29T04:41:56.036Z,68.18
2016-12-29T04:43:05.008Z,68.46
2016-12-29T04:44:13.996Z,68.37
2016-12-29T04:45:22.959Z,67.6
2016-12-29T04:46:31.927Z,67.73
2016-12-29T04:47:40.961Z,67.63
2016-12-29T04:48:49.941Z,68.46
2016-12-29T04:49:58.916Z,67.6
2016-12-29T04:51:07.900Z,68.18
2016-12-29T04:52:16.872Z,68.56
2016-12-29T04:53:25.873Z,68.08
2016-12-29T04:54:34.891Z,68.08
2016-12-29T04:55:43.865Z,67.6
2016-12-29T04:56:52.848Z,67.99
2016-12-29T04:58:01.846Z,68.46
2016-12-29T04:59:10.836Z,68.46
2016-12-29T05:00:19.800Z,68.56
2016-12-29T05:01:28.783Z,68.75
2016-12-29T05:02:37.767Z,69.04
2016-12-29T05:03:46.736Z,68.62
2016-12-29T05:04:55.706Z,68.91
2016-12-29T05:06:04.688Z,69.1
2016-12-29T05:07:13.673Z,69.2
2016-12-29T05:08:22.656Z,69.39
2016-12-29T05:09:31.643Z,69.1
2016-12-29T05:10:40.618Z,69.29
2016-12-29T05:11:49.630Z,69.1
2016-12-29T05:12:58.637Z,68.91
2016-12-29T05:14:07.673Z,69.48
2016-12-29T05:15:16.659Z,69.1
2016-12-29T05:16:25.630Z,69.1
2016-12-29T05:17:34.604Z,69.01
2016-12-29T05:18:43.654Z,68.91
2016-12-29T05:19:52.624Z,68.62
2016-12-29T05:21:01.588Z,68.66
2016-12-29T05:22:10.576Z,68.33
2016-12-29T05:23:19.558Z,68.33
2016-12-29T05:24:28.530Z,68.43
2016-12-29T05:25:37.511Z,68.46
2016-12-29T05:26:46.482Z,68.08
2016-12-29T05:27:55.469Z,67.6
2016-12-29T05:29:04.457Z,67.6
2016-12-29T05:30:13.519Z,67.79
2016-12-29T05:31:22.504Z,67.22
2016-12-29T05:32:31.480Z,67.69
2016-12-29T05:33:40.508Z,67.41
2016-12-29T05:34:49.511Z,67.22
2016-12-29T05:35:58.474Z,67.69
2016-12-29T05:37:07.475Z,67.69
2016-12-29T05:38:16.446Z,67.69
2016-12-29T05:39:25.817Z,67.6
2016-12-29T05:40:34.809Z,67.5
2016-12-29T05:41:43.789Z,67.41
2016-12-29T05:42:52.764Z,67.41
2016-12-29T05:44:01.728Z,67.5
2016-12-29T05:45:10.773Z,67.6
2016-12-29T05:46:19.821Z,68.33
2016-12-29T05:47:28.789Z,68.33
2016-12-29T05:48:37.766Z,68.43
2016-12-29T05:49:46.733Z,68.43
2016-12-29T05:50:55.710Z,68.33
2016-12-29T05:52:04.697Z,68.91
2016-12-29T05:53:13.692Z,68.62
2016-12-29T05:54:22.668Z,68.43
2016-12-29T05:55:31.647Z,68.24
2016-12-29T05:56:40.629Z,68.24
2016-12-29T05:57:49.612Z,68.43
2016-12-29T05:58:58.591Z,68.81
2016-12-29T06:00:07.562Z,68.81
2016-12-29T06:01:16.532Z,69.1
2016-12-29T06:02:25.511Z,69.2
2016-12-29T06:03:34.486Z,69.01
2016-12-29T06:04:43.468Z,69.01
2016-12-29T06:05:52.554Z,69.01
2016-12-29T06:07:01.528Z,69.39
2016-12-29T06:08:10.503Z,69.2
2016-12-29T06:09:19.490Z,68.97
2016-12-29T06:10:28.476Z,68.91
2016-12-29T06:11:37.459Z,69.1
2016-12-29T06:12:46.438Z,68.33
2016-12-29T06:13:55.427Z,68.52
2016-12-29T06:15:04.459Z,68.05
2016-12-29T06:16:13.434Z,68.33
2016-12-29T06:17:22.427Z,68.33
2016-12-29T06:18:31.394Z,68.43
2016-12-29T06:19:40.364Z,67.95
2016-12-29T06:20:49.362Z,68.14
2016-12-29T06:21:58.351Z,68.43
2016-12-29T06:23:07.324Z,67.66
2016-12-29T06:24:16.328Z,66.99
2016-12-29T06:25:25.310Z,66.93
2016-12-29T06:26:34.306Z,67.09
2016-12-29T06:27:43.288Z,66.71
2016-12-29T06:28:52.254Z,66.93
2016-12-29T06:30:01.238Z,66.45
2016-12-29T06:31:10.207Z,66.74
2016-12-29T06:32:19.186Z,67.5
2016-12-29T06:33:28.158Z,67.6
2016-12-29T06:34:37.150Z,66.99
2016-12-29T06:35:46.117Z,66.74
2016-12-29T06:36:55.078Z,66.16
2016-12-29T06:38:04.059Z,65.97
2016-12-29T06:39:13.086Z,65.88
2016-12-29T06:40:22.060Z,66.83
2016-12-29T06:41:31.211Z,66.45
2016-12-29T06:42:40.211Z,67.18
2016-12-29T06:43:49.206Z,67.28
2016-12-29T06:44:58.176Z,67.38
2016-12-29T06:46:07.161Z,67.85
2016-12-29T06:47:16.151Z,67.85
2016-12-29T06:48:25.134Z,67.85
2016-12-29T06:49:34.100Z,67.57
2016-12-29T06:50:43.102Z,67.57
2016-12-29T06:51:52.091Z,67.66
2016-12-29T06:53:01.070Z,67.47
2016-12-29T06:54:10.085Z,67.85
2016-12-29T06:55:19.071Z,68.05
2016-12-29T06:56:28.072Z,67.95
2016-12-29T06:57:37.046Z,67.76
2016-12-29T06:58:46.026Z,68.14
2016-12-29T06:59:55.043Z,67.85
2016-12-29T07:01:04.009Z,68.05
2016-12-29T07:02:13.016Z,67.66
2016-12-29T07:03:21.984Z,67.38
2016-12-29T07:04:30.968Z,67.76
2016-12-29T07:05:39.956Z,67.57
2016-12-29T07:06:48.921Z,67.54
2016-12-29T07:07:57.897Z,67.57
2016-12-29T07:09:06.884Z,67.38
2016-12-29T07:10:15.863Z,67.57
2016-12-29T07:11:24.836Z,67.28
2016-12-29T07:12:33.875Z,67.09
2016-12-29T07:13:42.868Z,67.09
2016-12-29T07:14:51.858Z,66.51
2016-12-29T07:16:00.841Z,66.89
2016-12-29T07:17:09.820Z,66.71
2016-12-29T07:18:18.804Z,66.35
2016-12-29T07:19:27.785Z,66.35
2016-12-29T07:20:36.763Z,66.13
2016-12-29T07:21:45.764Z,66.8
2016-12-29T07:22:54.750Z,67.09
2016-12-29T07:24:03.744Z,67.15
2016-12-29T07:25:12.731Z,67.63
2016-12-29T07:26:21.688Z,67.18
2016-12-29T07:27:30.657Z,67.09
2016-12-29T07:28:39.650Z,67.09
2016-12-29T07:29:48.649Z,67.18
2016-12-29T07:30:57.616Z,67.28
2016-12-29T07:32:06.610Z,67.18
2016-12-29T07:33:15.571Z,67.09
2016-12-29T07:34:24.541Z,67.09
2016-12-29T07:35:33.537Z,67.05
2016-12-29T07:36:42.528Z,67.28
2016-12-29T07:37:51.534Z,66.8
2016-12-29T07:39:00.547Z,67.38
2016-12-29T07:40:09.522Z,67.09
2016-12-29T07:41:18.509Z,66.96
2016-12-29T07:42:27.489Z,67.09
2016-12-29T07:43:36.473Z,67.57
2016-12-29T07:44:45.466Z,67.34
2016-12-29T07:45:54.449Z,67.44
2016-12-29T07:47:03.413Z,67.91
2016-12-29T07:48:12.387Z,68.49
2016-12-29T07:49:21.368Z,67.91
2016-12-29T07:50:30.335Z,67.54
2016-12-29T07:51:39.303Z,67.15
2016-12-29T07:52:48.288Z,66.32
2016-12-29T07:53:57.257Z,67.38
2016-12-29T07:55:06.239Z,67.44
2016-12-29T07:56:15.215Z,67.54
2016-12-29T07:57:24.186Z,67.05
2016-12-29T07:58:33.165Z,67.15
2016-12-29T07:59:42.140Z,66.61
2016-12-29T08:00:51.118Z,66.03
2016-12-29T08:02:00.089Z,66.13
2016-12-29T08:03:09.157Z,66.51
2016-12-29T08:04:18.136Z,66.42
2016-12-29T08:05:27.135Z,67.18
2016-12-29T08:06:36.117Z,66.71
2016-12-29T08:07:45.100Z,67.34
2016-12-29T08:08:54.071Z,66.13
2016-12-29T08:10:03.040Z,66.13
2016-12-29T08:11:12.026Z,66.03
2016-12-29T08:12:21.142Z,66.51
2016-12-29T08:13:30.600Z,67.09
2016-12-29T08:14:39.581Z,67.54
2016-12-29T08:15:48.574Z,67.82
2016-12-29T08:16:57.553Z,67.25
2016-12-29T08:18:06.544Z,67.54
2016-12-29T08:19:15.516Z,67.72
2016-12-29T08:20:24.499Z,67.63
2016-12-29T08:21:33.499Z,67.72
2016-12-29T08:22:42.483Z,67.34
2016-12-29T08:23:51.475Z,67.34
2016-12-29T08:25:00.465Z,67.54
2016-12-29T08:26:09.438Z,67.63
2016-12-29T08:27:18.418Z,66.96
2016-12-29T08:28:27.507Z,67.34
2016-12-29T08:29:36.480Z,67.54
2016-12-29T08:30:45.456Z,67.15
2016-12-29T08:31:54.448Z,67.34
2016-12-29T08:33:03.429Z,66.96
2016-12-29T08:34:12.403Z,67.25
2016-12-29T08:35:21.396Z,66.67
2016-12-29T08:36:30.373Z,66.32
2016-12-29T08:37:39.381Z,66.38
2016-12-29T08:38:48.415Z,66.67
2016-12-29T08:39:57.395Z,65.75
2016-12-29T08:41:06.369Z,66.13
2016-12-29T08:42:15.370Z,65.75
2016-12-29T08:43:24.350Z,65.84
2016-12-29T08:44:33.397Z,66.03
2016-12-29T08:45:42.381Z,65.46
2016-12-29T08:46:51.358Z,65.17
2016-12-29T08:48:00.334Z,65.36
2016-12-29T08:49:09.311Z,65.84
2016-12-29T08:50:18.297Z,65.17
2016-12-29T08:51:27.262Z,64.89
2016-12-29T08:52:36.244Z,65.88
2016-12-29T08:53:45.208Z,65.26
2016-12-29T08:54:54.182Z,65.84
2016-12-29T08:56:03.172Z,65.94
2016-12-29T08:57:12.165Z,65.08
2016-12-29T08:58:21.146Z,65.2
2016-12-29T08:59:30.136Z,65.08
2016-12-29T09:00:39.107Z,65.84
2016-12-29T09:01:48.176Z,65.81
2016-12-29T09:02:57.159Z,66.13
2016-12-29T09:04:06.136Z,66.51
2016-12-29T09:05:15.136Z,66.09
2016-12-29T09:06:24.125Z,66.29
2016-12-29T09:07:33.099Z,70.21
2016-12-29T09:08:42.094Z,72.17
2016-12-29T09:09:51.073Z,73.45
2016-12-29T09:11:00.055Z,73.45
2016-12-29T09:12:09.020Z,72.78
2016-12-29T09:13:18.010Z,72.3
2016-12-29T09:14:27.165Z,71.72
2016-12-29T09:15:36.139Z,73.26
2016-12-29T09:16:45.117Z,70.92
2016-12-29T09:17:54.105Z,67.91
2016-12-29T09:19:03.068Z,71.04
2016-12-29T09:20:12.034Z,71.33
2016-12-29T09:21:21.010Z,72.48
2016-12-29T09:22:29.984Z,73.05
2016-12-29T09:23:38.973Z,73.05
2016-12-29T09:24:47.948Z,72.96
2016-12-29T09:25:56.923Z,72.86
2016-12-29T09:27:05.894Z,71.71
2016-12-29T09:28:14.880Z,72.67
2016-12-29T09:29:23.853Z,72.86
2016-12-29T09:30:32.831Z,72.77
2016-12-29T09:31:41.805Z,72.77
2016-12-29T09:32:50.787Z,72.19
2016-12-29T09:33:59.773Z,77.5
2016-12-29T09:35:08.854Z,79.51
2016-12-29T09:36:17.840Z,80.89
2016-12-29T09:37:26.814Z,80.51
2016-12-29T09:38:35.793Z,79.07
2016-12-29T09:39:44.773Z,77.29
2016-12-29T09:40:53.740Z,77
2016-12-29T09:42:02.792Z,76.52
2016-12-29T09:43:11.875Z,77.58
2016-12-29T09:44:20.847Z,79.3
2016-12-29T09:45:29.837Z,80.55
2016-12-29T09:46:38.818Z,81.89
2016-12-29T09:47:47.865Z,81.02
2016-12-29T09:48:56.840Z,81.07
2016-12-29T09:50:05.827Z,81.74
2016-12-29T09:51:14.801Z,80.97
2016-12-29T09:52:23.791Z,81.07
2016-12-29T09:53:32.810Z,82.21
2016-12-29T09:54:42.995Z,83.27
2016-12-29T09:55:51.992Z,84.04
2016-12-29T09:57:01.911Z,83.41
2016-12-29T09:58:10.916Z,84.42
2016-12-29T10:00:58.587Z,84.95
2016-12-29T10:02:07.571Z,84.18
2016-12-29T10:03:16.621Z,83.12
2016-12-29T10:04:25.604Z,83.41
2016-12-29T10:05:34.587Z,83.54
2016-12-29T10:06:43.579Z,83.45
2016-12-29T10:07:52.598Z,83.54
2016-12-29T10:09:01.862Z,85.08
2016-12-29T10:10:11.261Z,83.93
2016-12-29T10:11:20.270Z,82.59
2016-12-29T10:12:29.366Z,83.45
2016-12-29T10:13:38.709Z,83.36
2016-12-29T10:14:47.985Z,84.51
2016-12-29T10:15:57.798Z,86.57
2016-12-29T10:17:06.872Z,85.03
2016-12-29T10:18:15.854Z,83.4
2016-12-29T10:19:24.845Z,83.87
2016-12-29T10:20:33.821Z,84.45
2016-12-29T10:21:43.831Z,84.26
2016-12-29T10:22:54.438Z,85.13
2016-12-29T10:24:03.426Z,84.26
2016-12-29T10:25:12.456Z,84.45
2016-12-29T10:26:21.450Z,84.17
2016-12-29T10:27:30.429Z,83.97
2016-12-29T10:28:39.395Z,83.49
2016-12-29T10:29:48.399Z,83.53
2016-12-29T10:30:57.378Z,82.76
2016-12-29T10:32:06.352Z,83.01
2016-12-29T10:33:15.336Z,83.63
2016-12-29T10:34:24.322Z,82.96
2016-12-29T10:35:33.303Z,82.09
2016-12-29T10:36:42.392Z,83.53
2016-12-29T10:37:53.477Z,82.57
2016-12-29T10:39:02.446Z,83.06
2016-12-29T10:40:11.431Z,82.86
2016-12-29T10:41:20.423Z,85.17
2016-12-29T10:42:29.409Z,85.07
2016-12-29T10:43:38.402Z,84.54
2016-12-29T10:44:47.590Z,83.44
2016-12-29T10:45:57.174Z,84.01
2016-12-29T10:47:06.148Z,82.86
2016-12-29T10:48:15.141Z,83.86
2016-12-29T10:49:24.112Z,82.61
2016-12-29T10:50:33.094Z,82.81
2016-12-29T10:51:42.066Z,83
2016-12-29T10:52:51.063Z,83
2016-12-29T10:54:00.044Z,82.81
2016-12-29T10:55:09.033Z,82.23
2016-12-29T10:56:17.998Z,82.81
2016-12-29T10:57:26.973Z,82.42
2016-12-29T10:58:35.937Z,82.42
2016-12-29T10:59:44.918Z,82.04
2016-12-29T11:00:53.896Z,81.94
2016-12-29T11:02:02.887Z,81.84
2016-12-29T11:03:11.849Z,81.94
2016-12-29T11:04:20.828Z,82.23
2016-12-29T11:05:29.799Z,81.94
2016-12-29T11:06:38.792Z,81.94
2016-12-29T11:07:47.780Z,81.94
2016-12-29T11:08:56.769Z,82.94
2016-12-29T11:10:07.463Z,83.14
2016-12-29T11:11:16.485Z,82.65
2016-12-29T11:12:25.602Z,82.46
2016-12-29T11:13:34.817Z,81.88
2016-12-29T11:14:43.806Z,82.17
2016-12-29T11:15:52.991Z,81.98
2016-12-29T11:17:02.733Z,82.27
2016-12-29T11:18:11.712Z,82.27
2016-12-29T11:19:21.325Z,82.37
2016-12-29T11:20:31.026Z,82.27
2016-12-29T11:21:40.198Z,82.56
2016-12-29T11:22:49.179Z,82.17
2016-12-29T11:23:58.873Z,82.17
2016-12-29T11:25:07.852Z,82.37
2016-12-29T11:26:16.829Z,82.46
2016-12-29T11:27:25.849Z,81.79
2016-12-29T11:28:34.831Z,81.88
2016-12-29T11:29:43.817Z,82.46
2016-12-29T11:30:52.784Z,82.56
2016-12-29T11:32:01.760Z,81.93
2016-12-29T11:33:10.736Z,81.73
2016-12-29T11:34:19.706Z,81.54
2016-12-29T11:35:28.710Z,81.54
2016-12-29T11:36:37.677Z,81.63
2016-12-29T11:37:46.661Z,81.16
2016-12-29T11:38:55.642Z,81.45
2016-12-29T11:40:04.630Z,81.45
2016-12-29T11:41:13.639Z,81.83
2016-12-29T11:42:22.622Z,81.63
2016-12-29T11:43:31.592Z,80.96
2016-12-29T11:44:40.571Z,79.43
2016-12-29T11:45:49.559Z,79.23
2016-12-29T11:46:58.542Z,79.61
2016-12-29T11:48:07.520Z,80.19
2016-12-29T11:49:16.504Z,80.29
2016-12-29T11:50:25.478Z,80.38
2016-12-29T11:51:34.459Z,80
2016-12-29T11:52:43.453Z,80.68
2016-12-29T11:53:52.462Z,81.48
2016-12-29T11:55:01.438Z,81.35
2016-12-29T11:56:11.285Z,81.25
2016-12-29T11:57:20.279Z,81.16
2016-12-29T11:58:29.273Z,81.73
2016-12-29T11:59:38.259Z,81.63
2016-12-29T12:00:47.243Z,81.77
2016-12-29T12:01:56.587Z,81.77
2016-12-29T12:03:05.593Z,82.06
2016-12-29T12:04:14.569Z,81.87
2016-12-29T12:05:23.538Z,82.74
2016-12-29T12:06:32.513Z,83.7
2016-12-29T12:07:41.484Z,83.31
2016-12-29T12:08:50.462Z,83.61
2016-12-29T12:09:59.457Z,83.8
2016-12-29T12:11:08.427Z,83.41
2016-12-29T12:12:17.413Z,85.34
2016-12-29T12:13:26.423Z,84.86
2016-12-29T12:14:35.436Z,84.76
2016-12-29T12:15:44.404Z,85.05
2016-12-29T12:16:53.379Z,85.77
2016-12-29T12:18:02.355Z,86.15
2016-12-29T12:19:11.321Z,85.96
2016-12-29T12:20:20.308Z,85.67
2016-12-29T12:21:29.277Z,85.28
2016-12-29T12:22:38.242Z,85.86
2016-12-29T12:23:47.247Z,85.77
2016-12-29T12:24:56.656Z,85.67
2016-12-29T12:26:05.625Z,85.67
2016-12-29T12:27:14.613Z,84.7
2016-12-29T12:28:23.585Z,85.47
2016-12-29T12:29:32.591Z,85.19
2016-12-29T12:30:41.573Z,85.19
2016-12-29T12:31:50.550Z,84.9
2016-12-29T12:32:59.525Z,84.9
2016-12-29T12:34:08.510Z,84.7
2016-12-29T12:35:17.481Z,84.9
2016-12-29T12:36:26.459Z,84.8
2016-12-29T12:37:35.455Z,84.61
2016-12-29T12:38:44.437Z,84.99
2016-12-29T12:39:53.445Z,85.42
2016-12-29T12:41:02.438Z,84.12
2016-12-29T12:42:11.416Z,83.98
2016-12-29T12:43:20.401Z,82.43
2016-12-29T12:44:29.374Z,82.49
2016-12-29T12:45:38.352Z,82.72
2016-12-29T12:46:47.328Z,83.11
2016-12-29T12:47:56.307Z,82.72
2016-12-29T12:49:05.286Z,83.11
2016-12-29T12:50:14.256Z,82.53
2016-12-29T12:51:23.302Z,82.72
2016-12-29T12:52:32.283Z,82.92
2016-12-29T12:53:42.085Z,82.53
2016-12-29T12:54:51.065Z,82.72
2016-12-29T12:56:00.087Z,81.27
2016-12-29T12:57:09.092Z,81.85
2016-12-29T12:58:18.076Z,81.18
2016-12-29T12:59:27.079Z,80.99
2016-12-29T13:00:36.056Z,79.54
2016-12-29T13:01:45.299Z,78.09
2016-12-29T13:02:54.518Z,77.42
2016-12-29T13:04:03.525Z,76.84
2016-12-29T13:05:12.520Z,76.55
2016-12-29T13:06:21.559Z,77.03
2016-12-29T13:07:30.564Z,76.55
2016-12-29T13:08:39.893Z,77.03
2016-12-29T13:09:48.934Z,76.84
2016-12-29T13:10:57.957Z,77.23
2016-12-29T13:12:07.933Z,77.71
2016-12-29T13:13:16.970Z,77.61
2016-12-29T13:14:25.949Z,78
2016-12-29T13:15:34.937Z,77.9
2016-12-29T13:16:43.918Z,77.61
2016-12-29T13:17:52.978Z,77.51
2016-12-29T13:19:02.018Z,77.61
2016-12-29T13:20:10.991Z,77.42
2016-12-29T13:21:19.975Z,77.33
2016-12-29T13:22:28.974Z,76.75
2016-12-29T13:23:37.972Z,75.59
2016-12-29T13:24:46.961Z,73.57
2016-12-29T13:25:56.364Z,73.08
2016-12-29T13:27:06.148Z,72.12
2016-12-29T13:28:15.144Z,72.31
2016-12-29T13:29:24.617Z,72.12
2016-12-29T13:30:34.368Z,72.12
2016-12-29T13:31:43.368Z,72.12
2016-12-29T13:32:52.352Z,71.92
2016-12-29T13:34:01.391Z,71.25
2016-12-29T13:35:10.387Z,71.64
2016-12-29T13:36:19.375Z,71.64
2016-12-29T13:37:28.368Z,70.67
2016-12-29T13:38:37.363Z,70.67
2016-12-29T13:39:46.358Z,70.57
2016-12-29T13:40:55.361Z,70.67
2016-12-29T13:42:04.357Z,71.64
2016-12-29T13:43:13.342Z,71.73
2016-12-29T13:44:22.370Z,71.73
2016-12-29T13:45:31.387Z,72.31
2016-12-29T13:46:40.365Z,72.12
2016-12-29T13:47:49.350Z,72.21
2016-12-29T13:48:58.717Z,72.21
2016-12-29T13:50:07.812Z,72.21
2016-12-29T13:51:16.800Z,72.6
2016-12-29T13:52:25.777Z,72.41
2016-12-29T13:53:34.767Z,72.69
2016-12-29T13:54:43.747Z,73.08
2016-12-29T13:55:52.737Z,73.08
2016-12-29T13:57:01.730Z,72.99
2016-12-29T13:58:10.730Z,72.89
2016-12-29T13:59:19.706Z,73.47
2016-12-29T14:00:28.688Z,73.57
2016-12-29T14:01:37.683Z,73.57
2016-12-29T14:02:46.678Z,73.57
2016-12-29T14:03:55.688Z,73.27
2016-12-29T14:05:04.701Z,74.43
2016-12-29T14:06:13.792Z,73.95
2016-12-29T14:07:23.072Z,74.14
2016-12-29T14:08:32.661Z,73.95
2016-12-29T14:09:42.411Z,73.18
2016-12-29T14:10:51.448Z,73.37
2016-12-29T14:12:00.431Z,73.47
2016-12-29T14:13:09.640Z,74.24
2016-12-29T14:14:18.941Z,74.24
2016-12-29T14:15:27.929Z,73.85
2016-12-29T14:16:36.921Z,73.85
2016-12-29T14:17:45.918Z,73.75
2016-12-29T14:18:54.905Z,74.52
2016-12-29T14:20:04.181Z,74.37
2016-12-29T14:21:13.159Z,74.33
2016-12-29T14:22:22.174Z,75.14
2016-12-29T14:23:31.495Z,75.05
2016-12-29T14:24:40.490Z,75.01
2016-12-29T14:25:49.486Z,74.91
2016-12-29T14:26:58.510Z,74.72
2016-12-29T14:28:07.918Z,74.76
2016-12-29T14:29:16.916Z,74.82
2016-12-29T14:30:25.910Z,74.72
2016-12-29T14:31:34.900Z,74.76
2016-12-29T14:32:43.904Z,74.72
2016-12-29T14:33:53.015Z,75.49
2016-12-29T14:35:03.025Z,74.62
2016-12-29T14:36:12.007Z,75.43
2016-12-29T14:37:20.992Z,75.4
2016-12-29T14:38:29.982Z,75.4
2016-12-29T14:39:39.236Z,75.34
2016-12-29T14:40:48.225Z,75.34
2016-12-29T14:41:57.228Z,75.34
2016-12-29T14:43:06.223Z,75.24
2016-12-29T14:44:15.206Z,75.34
2016-12-29T14:45:24.213Z,75.49
2016-12-29T14:46:33.193Z,75.24
2016-12-29T14:47:42.202Z,76.1
2016-12-29T14:48:51.221Z,76.01
2016-12-29T14:50:00.608Z,75.62
2016-12-29T14:51:10.004Z,75.72
2016-12-29T14:52:18.991Z,76.01
2016-12-29T14:53:28.001Z,76.4
2016-12-29T14:54:37.029Z,76.2